Time;durP1;ratioP1;P1;durP2;ratioP2;P2;SDS_P1;SDS_P2;PMS_P1;PMS_P2;Temp;Humidity;BMP_temperature;BMP_pressure;BME280_temperature;BME280_humidity;BME280_pressure;Samples;Min_cycle;Max_cycle;Signal;HPM_P1;HPM_P2
2021/04/13 00:01:50;;;;;;;;;;;;;;;-144.34;100.00;60189.88;4945338;29;19959;-91
2021/04/13 00:04:17;;;;;;;;;;;;;;;-144.34;100.00;60189.88;4949699;29;19934;-92
2021/04/13 00:06:45;;;;;;;;;;;;;;;-144.34;100.00;60189.88;4940481;29;20021;-92
2021/04/13 00:09:10;;;;;;;;;;;;;;;-144.34;100.00;60189.88;4929481;29;20281;-92
2021/04/13 00:11:37;;;;;;;;;;;;;;;-144.34;100.00;60189.88;4967588;29;19988;-92
2021/04/13 00:14:02;;;;;;;;;;;;;;;-144.34;100.00;60189.88;4941731;29;19949;-92
2021/04/13 00:16:29;;;;;;;;;;;;;;;-144.34;100.00;60189.88;4944912;29;19923;-92
2021/04/13 00:18:54;;;;;;;;;;;;;;;-144.34;100.00;60189.88;4935746;29;19922;-92
2021/04/13 00:21:23;;;;;;;;;;;;;;;-144.34;100.00;60189.88;4945851;29;19923;-92
2021/04/13 00:23:48;;;;;;;;;;;;;;;-144.34;100.00;60189.88;4949444;29;19922;-91
2021/04/13 00:26:25;;;;;;;;;;;;;;;-144.34;100.00;60189.88;4947153;29;19927;-92
2021/04/13 00:28:51;;;;;;;;;;;;;;;-144.34;100.00;60189.88;4928831;29;19929;-91
2021/04/13 00:31:39;;;;;;;;;;;;;;;-144.34;100.00;60189.88;4926842;29;19926;-91
2021/04/13 00:34:06;;;;;;;;;;;;;;;-144.34;100.00;60189.88;4948253;29;19938;-91
2021/04/13 00:36:31;;;;;;;;;;;;;;;-144.34;100.00;60189.88;4934193;29;19923;-90
2021/04/13 00:38:58;;;;;;;;;;;;;;;-144.34;100.00;60189.88;4950581;29;19933;-92
2021/04/13 00:41:29;;;;;;;;;;;;;;;-144.34;100.00;60189.88;4966022;29;19937;-91
2021/04/13 00:43:56;;;;;;;;;;;;;;;-144.34;100.00;60189.88;4948264;29;19946;-92
2021/04/13 00:46:26;;;;;;;;;;;;;;;-144.34;100.00;60189.88;4934191;29;20481;-92
2021/04/13 00:48:52;;;;;;;;;;;;;;;-144.34;100.00;60189.88;4936748;29;19977;-91
2021/04/13 00:51:23;;;;;;;;;;;;;;;-144.34;100.00;60189.88;4956442;29;19946;-91
2021/04/13 00:53:50;;;;;;;;;;;;;;;-144.34;100.00;60189.88;4935550;29;19922;-91
2021/04/13 00:56:17;;;;;;;;;;;;;;;-144.34;100.00;60189.88;4946254;29;19931;-92
2021/04/13 00:58:50;;;;;;;;;;;;;;;-144.34;100.00;60189.88;4950454;29;19934;-92
2021/04/13 01:01:18;;;;;;;;;;;;;;;-144.34;100.00;60189.88;4943264;29;19930;-92
2021/04/13 01:03:47;;;;;;;;;;;;;;;-144.34;100.00;60189.88;4937355;29;19950;-91
2021/04/13 01:06:22;;;;;;;;;;;;;;;-144.34;100.00;60189.88;4949775;29;19973;-92
2021/04/13 01:08:48;;;;;;;;;;;;;;;-144.34;100.00;60189.88;4941215;29;19942;-91
2021/04/13 01:11:18;;;;;;;;;;;;;;;-144.34;100.00;60189.88;4932988;29;20190;-89
2021/04/13 01:13:46;;;;;;;;;;;;;;;-144.34;100.00;60189.88;4945396;29;19922;-92
2021/04/13 01:16:12;;;;;;;;;;;;;;;-144.34;100.00;60189.88;4933785;29;19989;-91
2021/04/13 01:18:42;;;;;;;;;;;;;;;-144.34;100.00;60189.88;4947948;29;19927;-91
2021/04/13 01:21:19;;;;;;;;;;;;;;;-144.34;100.00;60189.88;4942347;29;19922;-90
2021/04/13 01:23:58;;;;;;;;;;;;;;;-144.34;100.00;60189.88;4926314;29;19926;-92
2021/04/13 01:26:23;;;;;;;;;;;;;;;-144.34;100.00;60189.88;4930813;29;19985;-91
2021/04/13 01:28:49;;;;;;;;;;;;;;;-144.34;100.00;60189.88;4945545;29;19926;-91
2021/04/13 01:31:42;;;;;;;;;;;;;;;-144.34;100.00;60189.88;4947413;29;19949;-92
2021/04/13 01:34:08;;;;;;;;;;;;;;;-144.34;100.00;60189.88;4965434;29;19945;-91
2021/04/13 01:36:40;;;;;;;;;;;;;;;-144.34;100.00;60189.88;4941822;29;20037;-90
2021/04/13 01:39:08;;;;;;;;;;;;;;;-144.34;100.00;60189.88;4940523;29;19927;-91
2021/04/13 01:41:42;;;;;;;;;;;;;;;-144.34;100.00;60189.88;4967130;29;20259;-91
2021/04/13 01:44:08;;;;;;;;;;;;;;;-144.34;100.00;60189.88;4931454;29;19957;-91
2021/04/13 01:46:35;;;;;;;;;;;;;;;-144.34;100.00;60189.88;4957537;29;19925;-91
2021/04/13 01:49:02;;;;;;;;;;;;;;;-144.34;100.00;60189.88;4933660;29;19922;-91
2021/04/13 01:51:30;;;;;;;;;;;;;;;-144.34;100.00;60189.88;4962492;28;19910;-91
2021/04/13 01:53:55;;;;;;;;;;;;;;;-144.34;100.00;60189.88;4945168;29;19946;-91
2021/04/13 01:56:39;;;;;;;;;;;;;;;-144.34;100.00;60189.88;4945647;29;19942;-91
2021/04/13 01:59:10;;;;;;;;;;;;;;;-144.34;100.00;60189.88;4950579;29;19973;-92
2021/04/13 02:01:39;;;;;;;;;;;;;;;-144.34;100.00;60189.88;4950201;29;19934;-91
2021/04/13 02:04:08;;;;;;;;;;;;;;;-144.34;100.00;60189.88;4950600;29;19926;-91
2021/04/13 02:06:43;;;;;;;;;;;;;;;-144.34;100.00;60189.88;4943658;29;19915;-91
2021/04/13 02:09:13;;;;;;;;;;;;;;;-144.34;100.00;60189.88;4933883;29;19929;-92
2021/04/13 02:11:40;;;;;;;;;;;;;;;-144.34;100.00;60189.88;4942078;29;19925;-91
2021/04/13 02:14:11;;;;;;;;;;;;;;;-144.34;100.00;60189.88;4946232;29;19926;-91
2021/04/13 02:17:05;;;;;;;;;;;;;;;-144.34;100.00;60189.88;4929612;29;20302;-91
2021/04/13 02:19:31;;;;;;;;;;;;;;;-144.34;100.00;60189.88;4943664;28;19927;-91
2021/04/13 02:22:12;;;;;;;;;;;;;;;-144.34;100.00;60189.88;4947024;29;19933;-91
2021/04/13 02:24:38;;;;;;;;;;;;;;;-144.34;100.00;60189.88;4951618;29;19985;-91
2021/04/13 02:27:15;;;;;;;;;;;;;;;-144.34;100.00;60189.88;4936987;29;19923;-90
2021/04/13 02:29:44;;;;;;;;;;;;;;;-144.34;100.00;60189.88;4950934;29;19923;-91
2021/04/13 02:32:15;;;;;;;;;;;;;;;-144.34;100.00;60189.88;4947751;28;20021;-91
2021/04/13 02:34:44;;;;;;;;;;;;;;;-144.34;100.00;60189.88;4949168;28;19957;-91
2021/04/13 02:37:25;;;;;;;;;;;;;;;-144.34;100.00;60189.88;4958006;28;19926;-89
2021/04/13 02:39:51;;;;;;;;;;;;;;;-144.34;100.00;60189.88;4951214;29;19930;-91
2021/04/13 02:42:22;;;;;;;;;;;;;;;-144.34;100.00;60189.88;4953032;29;19930;-90
2021/04/13 02:45:02;;;;;;;;;;;;;;;-144.34;100.00;60189.88;4956005;29;19950;-90
2021/04/13 02:47:27;;;;;;;;;;;;;;;-144.34;100.00;60189.88;4949299;29;19927;-90
2021/04/13 02:49:54;;;;;;;;;;;;;;;-144.34;100.00;60189.88;4955175;29;19946;-91
2021/04/13 02:52:25;;;;;;;;;;;;;;;-144.34;100.00;60189.88;4937226;29;19927;-91
2021/04/13 02:54:54;;;;;;;;;;;;;;;-144.34;100.00;60189.88;4967849;29;19927;-91
2021/04/13 02:57:32;;;;;;;;;;;;;;;-144.34;100.00;60189.88;4945142;29;19941;-90
2021/04/13 03:00:08;;;;;;;;;;;;;;;-144.34;100.00;60189.88;4944752;29;20663;-91
2021/04/13 03:02:45;;;;;;;;;;;;;;;-144.34;100.00;60189.88;4932714;29;19961;-91
2021/04/13 03:05:14;;;;;;;;;;;;;;;-144.34;100.00;60189.88;4906467;29;19982;-90
2021/04/13 03:07:42;;;;;;;;;;;;;;;-144.34;100.00;60189.88;4940180;29;19954;-91
2021/04/13 03:10:11;;;;;;;;;;;;;;;-144.34;100.00;60189.88;4906672;29;19958;-90
2021/04/13 03:12:44;;;;;;;;;;;;;;;-144.34;100.00;60189.88;4944701;29;19923;-90
2021/04/13 03:15:16;;;;;;;;;;;;;;;-144.34;100.00;60189.88;4941025;29;19926;-91
2021/04/13 03:17:46;;;;;;;;;;;;;;;-144.34;100.00;60189.88;4947547;29;19927;-90
2021/04/13 03:20:19;;;;;;;;;;;;;;;-144.34;100.00;60189.88;4944371;29;20346;-91
2021/04/13 03:23:02;;;;;;;;;;;;;;;-144.34;100.00;60189.88;4949555;29;19923;-91
2021/04/13 03:25:40;;;;;;;;;;;;;;;-144.34;100.00;60189.88;4927936;29;19933;-90
2021/04/13 03:28:06;;;;;;;;;;;;;;;-144.34;100.00;60189.88;4924437;29;19915;-91
2021/04/13 03:30:36;;;;;;;;;;;;;;;-144.34;100.00;60189.88;4927742;29;19926;-90
2021/04/13 03:33:09;;;;;;;;;;;;;;;-144.34;100.00;60189.88;4933510;29;19923;-91
2021/04/13 03:35:37;;;;;;;;;;;;;;;-144.34;100.00;60189.88;4922492;29;19927;-91
2021/04/13 03:38:04;;;;;;;;;;;;;;;-144.34;100.00;60189.88;4919996;29;20899;-90
2021/04/13 03:40:30;;;;;;;;;;;;;;;-144.34;100.00;60189.88;4918490;29;19941;-91
2021/04/13 03:43:16;;;;;;;;;;;;;;;-144.34;100.00;60189.88;4911571;29;19922;-88
2021/04/13 03:45:42;;;;;;;;;;;;;;;-144.34;100.00;60189.88;4915670;29;19926;-91
2021/04/13 03:48:16;;;;;;;;;;;;;;;-144.34;100.00;60189.88;4919333;29;19937;-92
2021/04/13 03:50:42;;;;;;;;;;;;;;;-144.34;100.00;60189.88;4917716;29;19929;-92
2021/04/13 03:53:12;;;;;;;;;;;;;;;-144.34;100.00;60189.88;4906334;29;19923;-92
2021/04/13 03:55:38;;;;;;;;;;;;;;;-144.34;100.00;60189.88;4920243;29;20380;-92
2021/04/13 03:58:17;;;;;;;;;;;;;;;-144.34;100.00;60189.88;4905779;29;20017;-91
2021/04/13 04:00:43;;;;;;;;;;;;;;;-144.34;100.00;60189.88;4921911;28;20001;-91
2021/04/13 04:03:09;;;;;;;;;;;;;;;-144.34;100.00;60189.88;4927989;29;19931;-91
2021/04/13 04:05:52;;;;;;;;;;;;;;;-144.34;100.00;60189.88;4925003;29;19922;-91
2021/04/13 04:08:38;;;;;;;;;;;;;;;-144.34;100.00;60189.88;4903784;29;20043;-87
2021/04/13 04:11:03;;;;;;;;;;;;;;;-144.34;100.00;60189.88;4902724;29;20744;-85
2021/04/13 04:13:36;;;;;;;;;;;;;;;-144.34;100.00;60189.88;4893181;29;19927;-84
2021/04/13 04:16:06;;;;;;;;;;;;;;;-144.34;100.00;60189.88;4900319;29;19934;-85
2021/04/13 04:18:39;;;;;;;;;;;;;;;-144.34;100.00;60189.88;4902946;29;19986;-85
2021/04/13 04:21:14;;;;;;;;;;;;;;;-144.34;100.00;60189.88;4901014;29;19930;-85
2021/04/13 04:23:39;;;;;;;;;;;;;;;-144.34;100.00;60189.88;4918437;29;19934;-87
2021/04/13 04:26:06;;;;;;;;;;;;;;;-144.34;100.00;60189.88;4901334;29;19931;-85
2021/04/13 04:28:38;;;;;;;;;;;;;;;-144.34;100.00;60189.88;4909273;29;19982;-86
2021/04/13 04:31:44;;;;;;;;;;;;;;;-144.34;100.00;60189.88;4899867;29;19949;-85
2021/04/13 04:34:14;;;;;;;;;;;;;;;-144.34;100.00;60189.88;4917309;29;19929;-85
2021/04/13 04:36:40;;;;;;;;;;;;;;;-144.34;100.00;60189.88;4893785;29;20395;-85
2021/04/13 04:39:26;;;;;;;;;;;;;;;-144.34;100.00;60189.88;4908494;29;19923;-84
2021/04/13 04:41:52;;;;;;;;;;;;;;;-144.34;100.00;60189.88;4901155;29;19993;-86
2021/04/13 04:44:22;;;;;;;;;;;;;;;-144.34;100.00;60189.88;4902201;29;19981;-84
2021/04/13 04:46:47;;;;;;;;;;;;;;;-144.34;100.00;60189.88;4901634;29;19923;-84
2021/04/13 04:49:16;;;;;;;;;;;;;;;-144.34;100.00;60189.88;4900711;29;20259;-84
2021/04/13 04:51:46;;;;;;;;;;;;;;;-144.34;100.00;60189.88;4901039;29;20835;-85
2021/04/13 04:54:12;;;;;;;;;;;;;;;-144.34;100.00;60189.88;4901192;29;19925;-85
2021/04/13 04:56:37;;;;;;;;;;;;;;;-144.34;100.00;60189.88;4901538;29;21142;-85
2021/04/13 04:59:02;;;;;;;;;;;;;;;-144.34;100.00;60189.88;4900813;29;19922;-85
2021/04/13 05:01:28;;;;;;;;;;;;;;;-144.34;100.00;60189.88;4910582;28;19933;-85
2021/04/13 05:03:53;;;;;;;;;;;;;;;-144.34;100.00;60189.88;4901543;29;19985;-86
2021/04/13 05:06:19;;;;;;;;;;;;;;;-144.34;100.00;60189.88;4901986;29;20403;-86
2021/04/13 05:08:45;;;;;;;;;;;;;;;-144.34;100.00;60189.88;4899801;29;20010;-85
2021/04/13 05:11:10;;;;;;;;;;;;;;;-144.34;100.00;60189.88;4911874;29;19974;-89
2021/04/13 05:13:35;;;;;;;;;;;;;;;-144.34;100.00;60189.88;4933708;29;19930;-91
2021/04/13 05:16:06;;;;;;;;;;;;;;;-144.34;100.00;60189.88;4921915;29;19923;-90
2021/04/13 05:18:32;;;;;;;;;;;;;;;-144.34;100.00;60189.88;4936802;29;19907;-91
2021/04/13 05:20:59;;;;;;;;;;;;;;;-144.34;100.00;60189.88;4950258;29;19934;-91
2021/04/13 05:23:25;;;;;;;;;;;;;;;-144.34;100.00;60189.88;4936415;29;19914;-91
2021/04/13 05:25:50;;;;;;;;;;;;;;;-144.34;100.00;60189.88;4935160;29;19950;-91
2021/04/13 05:28:16;;;;;;;;;;;;;;;-144.34;100.00;60189.88;4918245;29;19926;-91
2021/04/13 05:30:42;;;;;;;;;;;;;;;-144.34;100.00;60189.88;4914918;29;20394;-91
2021/04/13 05:33:10;;;;;;;;;;;;;;;-144.34;100.00;60189.88;4911147;29;19934;-92
2021/04/13 05:35:36;;;;;;;;;;;;;;;-144.34;100.00;60189.88;4908123;29;19962;-91
2021/04/13 05:38:02;;;;;;;;;;;;;;;-144.34;100.00;60189.88;4911213;29;19969;-90
2021/04/13 05:40:31;;;;;;;;;;;;;;;-144.34;100.00;60189.88;4902082;29;19923;-89
2021/04/13 05:42:57;;;;;;;;;;;;;;;-144.34;100.00;60189.88;4907247;29;19922;-90
2021/04/13 05:45:23;;;;;;;;;;;;;;;-144.34;100.00;60189.88;4900747;29;19985;-91
2021/04/13 05:47:51;;;;;;;;;;;;;;;-144.34;100.00;60189.88;4893429;29;20046;-89
2021/04/13 05:50:23;;;;;;;;;;;;;;;-144.34;100.00;60189.88;4903810;29;19986;-91
2021/04/13 05:52:49;;;;;;;;;;;;;;;-144.34;100.00;60189.88;4888279;29;20010;-91
2021/04/13 05:55:15;;;;;;;;;;;;;;;-144.34;100.00;60189.88;4909505;29;19923;-91
2021/04/13 05:57:40;;;;;;;;;;;;;;;-144.34;100.00;60189.88;4901409;29;19944;-91
2021/04/13 06:00:06;;;;;;;;;;;;;;;-144.34;100.00;60189.88;4896524;29;19965;-91
2021/04/13 06:02:33;;;;;;;;;;;;;;;-144.34;100.00;60189.88;4913556;29;19923;-91
2021/04/13 06:04:58;;;;;;;;;;;;;;;-144.34;100.00;60189.88;4911236;29;19969;-91
2021/04/13 06:07:24;;;;;;;;;;;;;;;-144.34;100.00;60189.88;4902853;29;19961;-92
2021/04/13 06:09:49;;;;;;;;;;;;;;;-144.34;100.00;60189.88;4922247;29;19934;-91
2021/04/13 06:12:15;;;;;;;;;;;;;;;-144.34;100.00;60189.88;4925523;29;20376;-92
2021/04/13 06:14:42;;;;;;;;;;;;;;;-144.34;100.00;60189.88;4917543;29;19937;-91
2021/04/13 06:17:10;;;;;;;;;;;;;;;-144.34;100.00;60189.88;4925542;29;19929;-92
2021/04/13 06:19:40;;;;;;;;;;;;;;;-144.34;100.00;60189.88;4911610;29;19923;-91
2021/04/13 06:22:05;;;;;;;;;;;;;;;-144.34;100.00;60189.88;4909252;29;19930;-93
2021/04/13 06:24:33;;;;;;;;;;;;;;;-144.34;100.00;60189.88;4921362;29;20198;-93
2021/04/13 06:27:22;;;;;;;;;;;;;;;-144.34;100.00;60189.88;4901205;29;20354;-93
2021/04/13 06:29:48;;;;;;;;;;;;;;;-144.34;100.00;60189.88;4919178;29;21390;-91
2021/04/13 06:32:14;;;;;;;;;;;;;;;-144.34;100.00;60189.88;4926768;29;19927;-94
2021/04/13 06:34:40;;;;;;;;;;;;;;;-144.34;100.00;60189.88;4946413;29;19934;-94
2021/04/13 06:37:06;;;;;;;;;;;;;;;-144.34;100.00;60189.88;4941910;29;19922;-93
2021/04/13 06:39:35;;;;;;;;;;;;;;;-144.34;100.00;60189.88;4940831;29;19923;-93
2021/04/13 06:42:21;;;;;;;;;;;;;;;-144.34;100.00;60189.88;4925481;29;19926;-94
2021/04/13 06:45:06;;;;;;;;;;;;;;;-144.34;100.00;60189.88;4959765;23;19919;-94
2021/04/13 06:47:41;;;;;;;;;;;;;;;-144.34;100.00;60189.88;4947142;29;19929;-93
2021/04/13 06:50:26;;;;;;;;;;;;;;;-144.34;100.00;60189.88;5020107;23;20658;-92
2021/04/13 06:52:55;;;;;;;;;;;;;;;-144.34;100.00;60189.88;4940257;28;19934;-86
2021/04/13 06:55:32;;;;;;;;;;;;;;;-144.34;100.00;60189.88;4914755;29;20017;-86
2021/04/13 07:01:40;;;;;;;;;;;;;;;;;;;;;
2021/04/13 07:04:20;;;;;;;;;;;;;;;-144.34;100.00;60189.88;4881375;29;19928;-86
2021/04/13 07:07:05;;;;;;;;;;;;;;;-144.34;100.00;77572.91;4917924;29;20482;-87
2021/04/13 07:09:40;;;;;;;;;;;;;;;-144.34;100.00;60189.88;4931956;28;20058;-86
2021/04/13 07:12:15;;;;;;;;;;;;;;;;;;4911237;29;19978;-87
2021/04/13 07:14:46;;;;;;;;;;;;;;;191.42;100.00;-15009.63;4922693;28;19959;-87
2021/04/13 07:17:16;;;;;;;;;;;;;;;-144.34;100.00;102545.59;4911533;29;19934;-87
2021/04/13 07:20:11;;;;;;;;;;;;;;;191.42;100.00;132580.31;4914817;29;19931;-86
2021/04/13 07:22:41;;;;;;;;;;;;;;;-144.34;100.00;60189.88;4920307;29;20008;-85
2021/04/13 07:25:08;;;;;;;;;;;;;;;2.41;100.00;60189.88;4913496;29;19923;-86
2021/04/13 07:27:39;;;;;;;;;;;;;;;-144.34;100.00;77532.25;4911910;29;20399;-86
2021/04/13 07:30:37;;;;;;;;;;;;;;;2.37;100.00;77991.00;4951106;28;20395;-86
2021/04/13 07:33:03;;;;;;;;;;;;;;;2.49;100.00;100511.31;4914494;29;20797;-86
2021/04/13 07:35:30;;;;;;;;;;;;;;;2.54;100.00;77961.44;4909064;29;20469;-86
2021/04/13 07:38:19;;;;;;;;;;;;;;;-144.34;100.00;77637.53;4919368;29;19926;-89
2021/04/13 07:40:45;;;;;;;;;;;;;;;-144.34;100.00;77992.97;4982561;28;19954;-92
2021/04/13 07:43:47;;;;;;;;;;;;;;;2.69;100.00;100511.78;4962604;28;19954;-92
2021/04/13 07:46:36;;;;;;;;;;;;;;;3.06;100.00;100519.44;4954313;29;19923;-91
2021/04/13 07:58:50;;;;;;;;;;;;;;;2.90;100.00;100521.63;4928606;29;19934;-92
2021/04/13 08:01:21;;;;;;;;;;;;;;;3.86;100.00;100510.94;4934493;29;19927;-92
2021/04/13 08:03:48;;;;;;;;;;;;;;;3.37;100.00;100517.56;4924388;29;19930;-91
2021/04/13 08:06:29;;;;;;;;;;;;;;;3.63;100.00;100508.78;4923171;29;19938;-92
2021/04/13 08:09:05;;;;;;;;;;;;;;;3.95;100.00;100513.66;4941051;29;19939;-92
2021/04/13 08:11:31;;;;;;;;;;;;;;;3.68;100.00;100512.28;4913557;29;19941;-91
2021/04/13 08:13:56;;;;;;;;;;;;;;;3.68;100.00;100512.28;4925629;29;19994;-92
2021/04/13 08:16:32;;;;;;;;;;;;;;;3.46;100.00;100525.38;4926192;29;19915;-93
2021/04/13 08:19:18;;;;;;;;;;;;;;;3.09;100.00;100524.59;4910344;29;19955;-91
2021/04/13 08:21:43;;;;;;;;;;;;;;;3.68;100.00;100525.00;4922489;29;20394;-91
2021/04/13 08:24:27;;;;;;;;;;;;;;;3.80;100.00;100521.84;4922398;29;20052;-91
2021/04/13 08:26:52;;;;;;;;;;;;;;;3.95;100.00;100521.31;4928100;29;19950;-92
2021/04/13 08:29:18;;;;;;;;;;;;;;;3.67;100.00;100524.97;4908628;29;19973;-91
2021/04/13 08:35:01;;;;;;;;;;;;;;;3.47;100.00;100522.88;4896180;29;19919;-91
2021/04/13 08:37:49;;;;;;;;;;;;;;;3.88;100.00;100527.13;4896064;29;19922;-92
2021/04/13 08:40:23;;;;;;;;;;;;;;;3.84;100.00;100521.09;4920082;29;19922;-91
2021/04/13 08:43:01;;;;;;;;;;;;;;;3.87;100.00;100513.50;4917012;29;20009;-91
2021/04/13 08:45:41;;;;;;;;;;;;;;;3.54;100.00;100519.63;4935576;29;19929;-91
2021/04/13 08:48:12;;;;;;;;;;;;;;;3.87;100.00;100518.59;4923548;29;19922;-91
2021/04/13 08:50:39;;;;;;;;;;;;;;;3.64;100.00;100518.13;4936805;29;20246;-92
2021/04/13 08:53:11;;;;;;;;;;;;;;;3.57;100.00;100518.84;4905676;29;19930;-92
2021/04/13 08:55:43;;;;;;;;;;;;;;;3.79;100.00;100515.06;4917298;29;19970;-92
2021/04/13 08:58:17;;;;;;;;;;;;;;;3.63;100.00;100529.16;4907304;29;19923;-91
2021/04/13 09:00:47;;;;;;;;;;;;;;;3.51;100.00;100526.34;4917150;29;19926;-92
2021/04/13 09:03:16;;;;;;;;;;;;;;;3.60;100.00;100528.22;4904503;29;19929;-91
2021/04/13 09:05:43;;;;;;;;;;;;;;;5.03;100.00;100524.84;4887828;29;19927;-93
2021/04/13 09:08:28;;;;;;;;;;;;;;;5.49;100.00;100511.00;4910949;29;19950;-93
2021/04/13 09:14:19;;;;;;;;;;;;;;;4.17;100.00;100525.97;4936977;29;20295;-93
2021/04/13 09:17:07;;;;;;;;;;;;;;;4.01;100.00;100525.66;4936512;29;19934;-92
2021/04/13 09:20:03;;;;;;;;;;;;;;;5.05;100.00;100521.47;4940034;29;19927;-92
2021/04/13 09:22:32;;;;;;;;;;;;;;;5.53;100.00;100521.28;4928044;29;19922;-92
2021/04/13 09:25:17;;;;;;;;;;;;;;;5.47;100.00;100518.63;4936816;29;19957;-92
2021/04/13 09:27:48;;;;;;;;;;;;;;;4.63;100.00;100525.03;4918953;29;20290;-91
2021/04/13 09:30:23;;;;;;;;;;;;;;;-144.34;100.00;100525.03;4912055;29;19931;-92
2021/04/13 09:32:54;;;;;;;;;;;;;;;5.26;100.00;100521.75;4922721;29;20263;-91
2021/04/13 09:38:33;;;;;;;;;;;;;;;4.34;100.00;100531.38;4929597;29;19949;-92
2021/04/13 09:41:23;;;;;;;;;;;;;;;5.12;100.00;100518.16;4919503;29;20604;-92
2021/04/13 09:44:12;;;;;;;;;;;;;;;5.49;100.00;100513.56;4913810;29;19923;-92
2021/04/13 09:47:21;;;;;;;;;;;;;;;;;;;;;
2021/04/13 09:50:58;;;;;;;;;;;;;;;5.26;100.00;100521.75;4940553;29;19929;-92
2021/04/13 09:53:54;;;;;;;;;;;;;;;5.49;100.00;100513.56;4937733;29;19926;-93
2021/04/13 10:00:00;;;;;;;;;;;;;;;5.57;100.00;100506.88;4930246;29;19938;-93
2021/04/13 10:02:47;;;;;;;;;;;;;;;4.97;100.00;100506.03;4920137;29;19930;-93
2021/04/13 10:05:16;;;;;;;;;;;;;;;4.71;100.00;100526.03;4917923;29;19922;-88
2021/04/13 10:07:53;;;;;;;;;;;;;;;4.72;100.00;100515.00;4908165;29;19927;-90
2021/04/13 10:10:52;;;;;;;;;;;;;;;;;;;;;
2021/04/13 10:13:40;;;;;;;;;;;;;;;5.95;100.00;100494.53;4921822;29;19922;-91
2021/04/13 10:16:24;;;;;;;;;;;;;;;5.74;100.00;100500.25;4920429;29;19927;-91
2021/04/13 10:19:06;;;;;;;;;;;;;;;;;;;;;
2021/04/13 10:21:58;;;;;;;;;;;;;;;6.09;100.00;100497.25;4929000;29;19922;-92
2021/04/13 10:25:01;;;;;;;;;;;;;;;6.31;98.45;100490.63;4921748;29;19927;-91
2021/04/13 10:28:06;;;;;;;;;;;;;;;7.01;98.42;100486.94;4922841;29;19930;-89
2021/04/13 10:31:03;;;;;;;;;;;;;;;6.94;96.72;100475.78;4921040;29;19928;-91
2021/04/13 10:33:55;;;;;;;;;;;;;;;7.40;98.81;100481.16;4882093;29;19930;-91
2021/04/13 10:36:30;;;;;;;;;;;;;;;;;;;;;
2021/04/13 10:39:10;;;;;;;;;;;;;;;6.44;95.22;100481.38;4943041;29;19922;-90
2021/04/13 10:41:58;;;;;;;;;;;;;;;6.51;92.37;100485.72;4936246;29;20017;-92
2021/04/13 10:44:52;;;;;;;;;;;;;;;6.44;92.25;100486.50;4923424;29;19950;-92
2021/04/13 10:47:17;;;;;;;;;;;;;;;6.44;92.42;100476.25;4923583;29;19952;-92
2021/04/13 10:50:20;;;;;;;;;;;;;;;6.91;92.12;100468.06;4928212;29;20033;-91
2021/04/13 10:53:16;;;;;;;;;;;;;;;6.78;91.97;100468.84;4895285;29;19934;-92
2021/04/13 10:56:03;;;;;;;;;;;;;;;6.54;89.84;100472.94;4859407;29;19932;-90
2021/04/13 10:58:48;;;;;;;;;;;;;;;6.42;86.47;100466.00;4941224;29;19926;-93
2021/04/13 11:01:39;;;;;;;;;;;;;;;5.89;89.25;100473.16;4922383;29;19923;-90
2021/04/13 11:04:23;;;;;;;;;;;;;;;5.71;87.69;100477.22;4920993;29;19930;-89
2021/04/13 11:06:57;;;;;;;;;;;;;;;6.18;87.45;100461.53;4937846;29;19953;-91
2021/04/13 11:09:37;;;;;;;;;;;;;;;6.14;85.99;100469.19;4916881;29;19990;-91
2021/04/13 11:12:19;;;;;;;;;;;;;;;5.71;88.78;100474.66;4906127;29;20306;-92
2021/04/13 11:14:57;;;;;;;;;;;;;;;5.53;91.63;100479.53;4922233;29;19933;-93
2021/04/13 11:17:45;;;;;;;;;;;;;;;6.42;89.61;100465.16;4922287;29;20375;-92
2021/04/13 11:20:13;;;;;;;;;;;;;;;6.72;91.12;100468.81;4895435;29;20416;-91
2021/04/13 11:22:43;;;;;;;;;;;;;;;6.77;86.98;100474.81;4924748;29;19918;-92
2021/04/13 11:25:14;;;;;;;;;;;;;;;6.98;85.77;100459.59;4941356;29;19954;-91
2021/04/13 11:28:00;;;;;;;;;;;;;;;6.82;77.61;100462.88;4942979;29;20374;-91
2021/04/13 11:30:32;;;;;;;;;;;;;;;7.79;80.53;100456.53;4914824;29;19962;-93
2021/04/13 11:33:32;;;;;;;;;;;;;;;7.31;76.97;100446.09;4943468;29;19930;-92
2021/04/13 11:36:04;;;;;;;;;;;;;;;7.49;74.16;100449.59;4910302;29;19927;-92
2021/04/13 11:38:29;;;;;;;;;;;;;;;7.73;75.07;100452.25;4922236;29;19923;-94
2021/04/13 11:41:14;;;;;;;;;;;;;;;7.58;74.09;100441.94;4912693;29;19933;-91
2021/04/13 11:43:43;;;;;;;;;;;;;;;7.83;75.48;100449.72;4920343;29;20442;-92
2021/04/13 11:46:11;;;;;;;;;;;;;;;7.66;73.32;100452.22;4905750;29;19958;-93
2021/04/13 11:48:55;;;;;;;;;;;;;;;7.16;70.31;100446.03;4907197;29;19922;-92
2021/04/13 11:51:38;;;;;;;;;;;;;;;7.54;71.42;100437.66;4939727;29;19982;-92
2021/04/13 11:54:34;;;;;;;;;;;;;;;7.76;71.12;100443.69;4939848;29;19926;-94
2021/04/13 11:57:04;;;;;;;;;;;;;;;6.88;70.77;100445.84;4921419;29;19927;-93
2021/04/13 12:00:18;;;;;;;;;;;;;;;;;;;;;
2021/04/13 12:02:43;;;;;;;;;;;;;;;8.23;66.22;100445.47;4920734;29;19933;-93
2021/04/13 12:05:28;;;;;;;;;;;;;;;8.08;60.01;100441.19;4892516;29;19923;-94
2021/04/13 12:08:15;;;;;;;;;;;;;;;8.30;65.42;100439.53;4917283;29;19923;-91
2021/04/13 12:10:48;;;;;;;;;;;;;;;7.78;65.22;100457.38;4912538;29;19923;-92
2021/04/13 12:13:36;;;;;;;;;;;;;;;8.65;71.52;100441.25;4923020;29;19933;-92
2021/04/13 12:19:13;;;;;;;;;;;;;;;7.87;66.19;100442.03;4888068;29;19927;-93
2021/04/13 12:21:39;;;;;;;;;;;;;;;7.86;65.65;100435.16;4922813;29;19934;-92
2021/04/13 12:24:24;;;;;;;;;;;;;;;8.03;65.28;100427.50;4924466;29;20357;-94
2021/04/13 12:27:03;;;;;;;;;;;;;;;;;;;;;
2021/04/13 12:30:05;;;;;;;;;;;;;;;;;;;;;
2021/04/13 12:32:51;;;;;;;;;;;;;;;8.29;60.35;100439.50;4921968;29;19919;-94
2021/04/13 12:35:36;;;;;;;;;;;;;;;8.31;56.81;100433.50;4933937;29;20013;-92
2021/04/13 12:38:01;;;;;;;;;;;;;;;8.73;55.85;100429.22;4931451;29;19923;-92
2021/04/13 12:40:28;;;;;;;;;;;;;;;8.11;53.88;100425.78;4912522;29;19926;-94
2021/04/13 12:42:54;;;;;;;;;;;;;;;7.48;53.46;100428.25;4901978;29;19922;-94
2021/04/13 12:45:20;;;;;;;;;;;;;;;7.72;58.67;100429.16;4913498;29;19918;-93
2021/04/13 12:47:46;;;;;;;;;;;;;;;7.42;58.74;100427.34;4923792;29;19919;-93
2021/04/13 12:50:31;;;;;;;;;;;;;;;7.74;61.58;100430.03;4912800;29;19942;-92
2021/04/13 12:52:57;;;;;;;;;;;;;;;7.08;59.98;100434.88;4922447;29;19919;-93
2021/04/13 12:55:25;;;;;;;;;;;;;;;7.24;60.77;100434.09;4915328;29;19993;-94
2021/04/13 12:57:55;;;;;;;;;;;;;;;7.26;61.25;100429.84;4907075;29;19927;-96
2021/04/13 13:00:22;;;;;;;;;;;;;;;7.06;59.90;100432.31;4915989;29;20006;-94
2021/04/13 13:02:49;;;;;;;;;;;;;;;7.52;60.21;100422.25;4911514;29;19926;-92
2021/04/13 13:05:43;;;;;;;;;;;;;;;7.49;58.54;100421.41;4912929;29;19927;-94
2021/04/13 13:08:08;;;;;;;;;;;;;;;8.92;58.70;100408.66;4935612;29;19933;-92
2021/04/13 13:10:36;;;;;;;;;;;;;;;9.18;56.68;100419.69;4911076;29;20422;-93
2021/04/13 13:13:05;;;;;;;;;;;;;;;8.91;55.16;100406.94;4922653;29;19923;-92
2021/04/13 13:15:32;;;;;;;;;;;;;;;8.65;53.77;100407.84;4908601;29;20009;-93
2021/04/13 13:17:57;;;;;;;;;;;;;;;8.76;56.60;100413.84;4906438;29;19923;-94
2021/04/13 13:20:30;;;;;;;;;;;;;;;9.45;57.64;100407.59;4913594;29;19934;-94
2021/04/13 13:22:56;;;;;;;;;;;;;;;8.48;54.21;100415.56;4926913;29;19922;-92
2021/04/13 13:25:23;;;;;;;;;;;;;;;8.05;55.79;100427.50;4914911;29;19978;-92
2021/04/13 13:27:49;;;;;;;;;;;;;;;7.98;56.07;100418.94;4914485;29;19934;-93
2021/04/13 13:30:15;;;;;;;;;;;;;;;7.76;56.29;100418.06;4917074;29;19927;-92
2021/04/13 13:32:41;;;;;;;;;;;;;;;7.47;56.72;100416.25;4910012;29;19997;-93
2021/04/13 13:35:07;;;;;;;;;;;;;;;7.52;55.52;100414.56;4911041;29;20469;-94
2021/04/13 13:37:33;;;;;;;;;;;;;;;8.48;56.65;100414.72;4918855;29;20001;-94
2021/04/13 13:39:58;;;;;;;;;;;;;;;8.22;52.52;100412.13;4919402;29;20343;-93
2021/04/13 13:42:24;;;;;;;;;;;;;;;8.96;52.00;100405.22;4913065;29;19994;-92